Time;durP1;ratioP1;P1;durP2;ratioP2;P2;SDS_P1;SDS_P2;PMS_P1;PMS_P2;Temp;Humidity;BMP_temperature;BMP_pressure;BME280_temperature;BME280_humidity;BME280_pressure;Samples;Min_cycle;Max_cycle;Signal;HPM_P1;HPM_P2
2021/12/07 00:01:17;;;;;;;;;;;;;;;3.84;100.00;97868.28;4974083;28;19968;-74
2021/12/07 00:03:43;;;;;;;;;;;;;;;3.66;100.00;97865.28;5014555;28;19983;-74
2021/12/07 00:06:08;;;;;;;;;;;;;;;3.50;100.00;97866.50;4989160;28;19925;-74
2021/12/07 00:08:34;;;;;;;;;;;;;;;3.49;100.00;97882.63;4997148;28;19970;-74
2021/12/07 00:11:00;;;;;;;;;;;;;;;3.53;100.00;97874.88;4995278;28;19975;-75
2021/12/07 00:13:29;;;;;;;;;;;;;;;3.17;100.00;97874.00;4987834;28;19925;-73
2021/12/07 00:15:55;;;;;;;;;;;;;;;3.13;100.00;97885.09;4996553;28;19929;-75
2021/12/07 00:18:20;;;;;;;;;;;;;;;3.24;100.00;97883.16;4988618;28;21189;-74
2021/12/07 00:20:45;;;;;;;;;;;;;;;2.96;100.00;97892.19;4989564;28;20310;-75
2021/12/07 00:23:11;;;;;;;;;;;;;;;3.24;100.00;97900.09;4989728;28;20036;-74
2021/12/07 00:25:36;;;;;;;;;;;;;;;3.30;100.00;97893.19;4989353;28;20379;-75
2021/12/07 00:28:03;;;;;;;;;;;;;;;3.11;100.00;97897.00;5010629;28;19923;-74
2021/12/07 00:30:32;;;;;;;;;;;;;;;3.51;100.00;97891.06;5009181;28;19921;-75
2021/12/07 00:35:55;;;;;;;;;;;;;;;3.15;100.00;97888.44;5002955;28;19952;-74
2021/12/07 00:38:22;;;;;;;;;;;;;;;3.43;100.00;97888.69;4988492;28;20362;-74
2021/12/07 00:40:47;;;;;;;;;;;;;;;3.33;100.00;97884.66;4979083;28;19924;-75
2021/12/07 00:43:13;;;;;;;;;;;;;;;3.41;100.00;97892.16;5012970;28;19921;-74
2021/12/07 00:45:40;;;;;;;;;;;;;;;3.52;100.00;97885.13;5009552;28;20079;-75
2021/12/07 00:48:06;;;;;;;;;;;;;;;2.98;100.00;97885.38;5011290;28;19921;-73
2021/12/07 00:50:31;;;;;;;;;;;;;;;3.27;100.00;97893.25;4973810;28;20383;-74
2021/12/07 00:52:57;;;;;;;;;;;;;;;3.44;100.00;97880.19;4968275;28;19918;-74
2021/12/07 00:55:25;;;;;;;;;;;;;;;3.16;100.00;97890.09;4984681;28;19980;-75
2021/12/07 00:57:53;;;;;;;;;;;;;;;3.56;100.00;97879.09;4967503;28;19922;-74
2021/12/07 01:00:19;;;;;;;;;;;;;;;3.44;100.00;97874.25;4967661;28;20307;-75
2021/12/07 01:02:44;;;;;;;;;;;;;;;3.46;100.00;97877.59;4968300;28;19918;-74
2021/12/07 01:05:22;;;;;;;;;;;;;;;3.13;100.00;97882.53;4965433;28;19921;-72
2021/12/07 01:26:37;;;;;;;;;;;;;;;3.41;100.00;97879.41;4970356;28;19928;-73
2021/12/07 01:29:02;;;;;;;;;;;;;;;3.45;100.00;97884.41;4984767;28;20276;-75
2021/12/07 01:31:41;;;;;;;;;;;;;;;3.54;100.00;97891.84;4967169;28;20019;-72
2021/12/07 01:45:15;;;;;;;;;;;;;;;3.96;100.00;97899.38;4969981;28;19928;-75
2021/12/07 01:50:24;;;;;;;;;;;;;;;3.55;100.00;97908.78;4996611;28;20478;-74
2021/12/07 01:53:05;;;;;;;;;;;;;;;3.60;100.00;97916.31;5004091;28;20045;-74
2021/12/07 01:57:52;;;;;;;;;;;;;;;4.43;100.00;97929.72;4993923;28;19928;-73
2021/12/07 02:01:02;;;;;;;;;;;;;;;3.46;100.00;97939.53;5009017;28;19920;-74
2021/12/07 02:03:28;;;;;;;;;;;;;;;4.19;100.00;97941.31;5011125;28;19917;-74
2021/12/07 02:05:53;;;;;;;;;;;;;;;4.00;100.00;97935.81;5009891;28;19921;-74
2021/12/07 02:08:19;;;;;;;;;;;;;;;3.85;100.00;97925.97;4983787;28;19965;-74
2021/12/07 02:10:45;;;;;;;;;;;;;;;4.04;100.00;97931.47;4985131;28;19925;-74
2021/12/07 02:14:02;;;;;;;;;;;;;;;4.19;100.00;97937.06;5009268;28;19925;-75
2021/12/07 02:16:05;;;;;;;;;;;;;;;3.47;100.00;97950.56;5008930;28;19948;-74
2021/12/07 02:18:30;;;;;;;;;;;;;;;4.24;100.00;97959.06;4986539;28;20363;-75
2021/12/07 02:20:56;;;;;;;;;;;;;;;4.81;100.00;97950.84;5010154;28;19921;-74
2021/12/07 02:23:21;;;;;;;;;;;;;;;5.07;100.00;97939.97;4991780;28;19925;-73
2021/12/07 02:25:47;;;;;;;;;;;;;;;3.89;100.00;97942.88;5012130;28;20082;-75
2021/12/07 02:28:16;;;;;;;;;;;;;;;3.63;100.00;97951.91;5011338;28;19921;-72
2021/12/07 02:30:42;;;;;;;;;;;;;;;4.82;100.00;97955.94;4987300;28;20032;-74
2021/12/07 02:33:09;;;;;;;;;;;;;;;4.88;100.00;97952.41;5008931;28;19917;-73
2021/12/07 02:35:35;;;;;;;;;;;;;;;3.54;100.00;97962.28;4985624;28;20075;-74
2021/12/07 02:38:00;;;;;;;;;;;;;;;3.60;100.00;97962.16;4986563;28;20375;-73
2021/12/07 02:40:26;;;;;;;;;;;;;;;4.51;100.00;97968.59;5012362;28;20008;-75
2021/12/07 02:42:51;;;;;;;;;;;;;;;4.04;100.00;97965.47;4986463;28;19924;-73
2021/12/07 02:45:17;;;;;;;;;;;;;;;4.06;100.00;97965.41;5008553;28;19944;-73
2021/12/07 02:47:43;;;;;;;;;;;;;;;3.29;100.00;97972.94;5010977;28;19936;-74
2021/12/07 02:50:09;;;;;;;;;;;;;;;3.51;100.00;97986.09;4993958;28;20291;-73
2021/12/07 02:52:34;;;;;;;;;;;;;;;3.64;100.00;97991.78;5008692;28;19913;-73
2021/12/07 02:54:59;;;;;;;;;;;;;;;3.94;100.00;98002.19;5010492;28;20323;-74
2021/12/07 02:57:25;;;;;;;;;;;;;;;3.91;100.00;98002.25;5009629;28;19932;-73
2021/12/07 02:59:59;;;;;;;;;;;;;;;4.01;100.00;98008.81;4985095;28;19925;-74
2021/12/07 03:02:25;;;;;;;;;;;;;;;3.82;100.00;98017.72;5010582;28;20410;-75
2021/12/07 03:08:18;;;;;;;;;;;;;;;3.15;100.00;98013.09;5007299;28;19928;-74
2021/12/07 03:26:57;;;;;;;;;;;;;;;3.96;100.00;98057.31;5010517;28;19928;-74
2021/12/07 03:29:22;;;;;;;;;;;;;;;3.88;100.00;98058.38;4987992;28;19925;-75
2021/12/07 03:31:48;;;;;;;;;;;;;;;3.54;100.00;98069.22;5012859;28;20377;-74
2021/12/07 03:34:13;;;;;;;;;;;;;;;3.97;100.00;98070.91;4989106;28;19917;-75
2021/12/07 03:36:39;;;;;;;;;;;;;;;3.52;100.00;98074.31;4996029;28;19921;-76
2021/12/07 03:39:04;;;;;;;;;;;;;;;3.70;100.00;98070.59;4989372;28;19925;-75
2021/12/07 03:41:30;;;;;;;;;;;;;;;3.69;100.00;98084.16;5013609;28;19917;-75
2021/12/07 03:43:56;;;;;;;;;;;;;;;3.17;100.00;98080.06;5013473;28;19913;-75
2021/12/07 03:46:21;;;;;;;;;;;;;;;3.70;100.00;98087.56;4987767;28;19929;-74
2021/12/07 03:48:46;;;;;;;;;;;;;;;2.66;100.00;98092.72;4988797;28;19934;-75
2021/12/07 03:51:12;;;;;;;;;;;;;;;2.12;100.00;98115.47;4996719;28;20004;-74
2021/12/07 03:53:38;;;;;;;;;;;;;;;2.30;100.00;98130.47;5013673;28;19944;-75
2021/12/07 03:56:04;;;;;;;;;;;;;;;2.36;100.00;98139.72;5011749;28;19918;-75
2021/12/07 03:58:30;;;;;;;;;;;;;;;2.25;100.00;98155.09;4972934;28;19920;-75
2021/12/07 04:00:55;;;;;;;;;;;;;;;2.31;100.00;98167.75;4971806;28;20059;-75
2021/12/07 04:03:21;;;;;;;;;;;;;;;1.84;100.00;98184.34;4994893;28;19967;-75
2021/12/07 04:05:52;;;;;;;;;;;;;;;1.78;100.00;98207.22;4992934;28;19920;-75
2021/12/07 04:08:20;;;;;;;;;;;;;;;1.67;95.74;98217.50;5012878;28;19918;-74
2021/12/07 04:10:45;;;;;;;;;;;;;;;1.67;92.42;98225.13;4988188;28;19925;-75
2021/12/07 04:13:11;;;;;;;;;;;;;;;1.49;89.05;98245.59;5012764;28;19929;-75
2021/12/07 04:15:36;;;;;;;;;;;;;;;1.72;83.09;98268.22;4987868;28;20028;-75
2021/12/07 04:18:02;;;;;;;;;;;;;;;1.55;80.37;98276.81;4994849;28;19928;-75
2021/12/07 04:20:27;;;;;;;;;;;;;;;1.76;76.51;98282.59;4993019;28;19917;-75
2021/12/07 04:22:54;;;;;;;;;;;;;;;1.83;74.12;98289.28;5012302;28;19917;-74
2021/12/07 04:25:19;;;;;;;;;;;;;;;1.72;73.09;98298.69;5011410;28;20011;-74
2021/12/07 04:27:45;;;;;;;;;;;;;;;1.64;70.93;98302.13;4988867;28;19921;-73
2021/12/07 04:30:12;;;;;;;;;;;;;;;1.73;68.35;98313.88;5010219;28;19932;-75
2021/12/07 04:32:38;;;;;;;;;;;;;;;1.72;66.50;98329.16;5011697;28;19979;-75
2021/12/07 04:35:04;;;;;;;;;;;;;;;1.81;65.11;98334.16;4988839;28;19918;-74
2021/12/07 04:37:29;;;;;;;;;;;;;;;2.06;64.65;98337.34;4989023;28;19925;-74
2021/12/07 04:39:55;;;;;;;;;;;;;;;1.98;65.26;98344.16;4986125;28;19921;-73
2021/12/07 04:42:20;;;;;;;;;;;;;;;2.35;63.37;98337.09;5012749;28;19921;-75
2021/12/07 04:44:55;;;;;;;;;;;;;;;2.52;68.05;98339.44;4987536;28;19968;-74
2021/12/07 04:47:39;;;;;;;;;;;;;;;2.33;71.00;98323.53;5015949;28;20390;-75
2021/12/07 04:58:10;;;;;;;;;;;;;;;2.18;62.73;98344.84;5016646;28;20405;-74
2021/12/07 05:00:36;;;;;;;;;;;;;;;1.80;64.52;98350.22;5010760;28;19949;-73
2021/12/07 05:03:06;;;;;;;;;;;;;;;1.83;60.08;98363.75;5011720;28;19917;-73
2021/12/07 05:05:36;;;;;;;;;;;;;;;2.47;57.13;98367.44;5012337;28;20017;-75
2021/12/07 05:08:05;;;;;;;;;;;;;;;2.30;61.80;98356.59;4971976;28;20003;-74
2021/12/07 05:39:47;;;;;;;;;;;;;;;1.86;34.08;98465.28;4986995;28;19940;-74
2021/12/07 05:42:13;;;;;;;;;;;;;;;2.08;32.72;98466.00;4986290;28;19917;-73
2021/12/07 05:44:38;;;;;;;;;;;;;;;2.13;32.06;98475.28;4985038;28;20030;-74
2021/12/07 05:47:04;;;;;;;;;;;;;;;2.08;31.07;98480.41;4993527;28;19968;-74
2021/12/07 05:49:29;;;;;;;;;;;;;;;2.28;26.69;98487.88;5008327;28;20016;-75
2021/12/07 05:51:55;;;;;;;;;;;;;;;2.03;27.97;98494.81;4986255;28;19917;-74
2021/12/07 05:54:20;;;;;;;;;;;;;;;2.09;26.13;98507.47;5014143;28;19913;-74
2021/12/07 05:56:46;;;;;;;;;;;;;;;2.24;23.43;98514.16;4984717;28;19935;-75
2021/12/07 05:59:11;;;;;;;;;;;;;;;2.13;23.45;98519.31;5009641;28;19948;-74
2021/12/07 06:01:37;;;;;;;;;;;;;;;2.38;22.73;98519.16;5007253;28;20047;-74
2021/12/07 06:04:02;;;;;;;;;;;;;;;2.50;20.43;98524.16;4992340;28;19975;-73
2021/12/07 06:06:27;;;;;;;;;;;;;;;2.43;21.32;98525.03;4984267;28;19975;-75
2021/12/07 06:08:53;;;;;;;;;;;;;;;2.24;18.30;98542.97;5007888;28;19925;-74
2021/12/07 06:11:21;;;;;;;;;;;;;;;2.56;16.83;98541.91;4985623;28;20279;-74
2021/12/07 06:13:47;;;;;;;;;;;;;;;2.78;14.66;98550.19;5006293;28;21232;-74
2021/12/07 06:16:15;;;;;;;;;;;;;;;2.50;15.30;98550.41;5006272;28;20019;-75
2021/12/07 06:18:40;;;;;;;;;;;;;;;2.62;12.50;98552.03;5006801;28;19921;-74
2021/12/07 06:21:05;;;;;;;;;;;;;;;2.66;11.95;98563.84;5007689;28;21037;-75
2021/12/07 06:23:31;;;;;;;;;;;;;;;2.75;9.89;98573.09;5005248;28;20383;-74
2021/12/07 06:25:58;;;;;;;;;;;;;;;2.75;8.17;98584.97;4969603;28;20367;-76
2021/12/07 06:28:23;;;;;;;;;;;;;;;2.80;4.67;98589.16;4984710;28;19929;-75
2021/12/07 06:30:48;;;;;;;;;;;;;;;2.72;4.23;98598.56;5006623;28;19917;-73
2021/12/07 06:33:15;;;;;;;;;;;;;;;2.75;2.32;98601.06;5005985;28;19925;-76
2021/12/07 06:35:40;;;;;;;;;;;;;;;2.76;1.96;98612.09;4968953;28;20287;-75
2021/12/07 06:38:05;;;;;;;;;;;;;;;2.87;0.23;98620.47;5002596;28;19922;-75
2021/12/07 06:40:31;;;;;;;;;;;;;;;3.01;0.00;98628.00;5006579;28;19921;-74
2021/12/07 06:42:59;;;;;;;;;;;;;;;2.98;0.00;98630.59;4968153;28;20013;-76
2021/12/07 06:45:25;;;;;;;;;;;;;;;3.00;0.00;98637.34;4985634;28;19972;-74
2021/12/07 06:47:50;;;;;;;;;;;;;;;2.95;0.00;98633.16;5009189;28;19922;-76
2021/12/07 06:50:15;;;;;;;;;;;;;;;3.07;0.00;98644.06;5003414;28;20020;-75
2021/12/07 06:52:41;;;;;;;;;;;;;;;3.28;0.00;98648.13;4987401;28;19924;-77
2021/12/07 06:55:07;;;;;;;;;;;;;;;3.21;0.00;98646.50;4985336;28;19917;-76
2021/12/07 06:57:33;;;;;;;;;;;;;;;3.33;0.00;98646.44;5006789;28;19929;-76
2021/12/07 06:59:58;;;;;;;;;;;;;;;3.30;0.00;98648.13;4985473;28;20524;-75
2021/12/07 07:02:23;;;;;;;;;;;;;;;3.25;0.00;98650.72;4984799;28;20379;-74
2021/12/07 07:04:49;;;;;;;;;;;;;;;3.19;0.00;98653.31;4985883;28;19914;-76
2021/12/07 07:07:16;;;;;;;;;;;;;;;3.43;0.00;98667.53;5007694;28;19927;-75
2021/12/07 07:09:41;;;;;;;;;;;;;;;3.30;0.00;98656.59;4986174;28;20000;-75
2021/12/07 07:12:07;;;;;;;;;;;;;;;3.31;0.00;98658.31;4970504;28;20012;-75
2021/12/07 07:14:32;;;;;;;;;;;;;;;3.37;0.00;98656.56;5017043;28;19980;-74
2021/12/07 07:16:58;;;;;;;;;;;;;;;3.38;0.00;98650.63;4987386;28;19964;-75
2021/12/07 07:19:24;;;;;;;;;;;;;;;3.37;0.00;98654.84;5009101;28;19991;-75
2021/12/07 07:21:50;;;;;;;;;;;;;;;3.44;0.00;98653.09;5011256;28;19913;-76
2021/12/07 07:24:15;;;;;;;;;;;;;;;3.55;0.00;98648.75;4985414;28;20468;-74
2021/12/07 07:26:41;;;;;;;;;;;;;;;3.48;0.00;98650.53;5005242;28;19913;-76
2021/12/07 07:29:06;;;;;;;;;;;;;;;3.46;0.00;98644.59;4990602;28;19917;-76
2021/12/07 07:31:31;;;;;;;;;;;;;;;3.43;0.00;98648.88;4984198;28;19913;-75
2021/12/07 07:33:57;;;;;;;;;;;;;;;3.82;0.00;98642.56;4969233;28;19940;-75
2021/12/07 07:36:22;;;;;;;;;;;;;;;3.61;2.84;98637.69;5007584;28;19958;-75
2021/12/07 07:38:48;;;;;;;;;;;;;;;3.52;1.14;98641.16;5005972;28;19921;-76
2021/12/07 07:41:13;;;;;;;;;;;;;;;3.58;0.69;98641.13;5006036;28;19917;-75
2021/12/07 07:43:38;;;;;;;;;;;;;;;3.41;3.03;98630.25;4984226;28;19929;-76
2021/12/07 07:46:04;;;;;;;;;;;;;;;3.29;2.61;98624.41;5008418;28;19921;-74
2021/12/07 07:48:29;;;;;;;;;;;;;;;3.41;2.54;98620.06;4985395;28;20379;-75
2021/12/07 07:50:55;;;;;;;;;;;;;;;3.33;2.54;98612.47;4991597;28;19932;-76
2021/12/07 07:53:20;;;;;;;;;;;;;;;3.35;2.44;98598.91;4984145;28;20011;-75
2021/12/07 07:55:46;;;;;;;;;;;;;;;3.36;2.91;98602.28;5007094;28;19929;-76
2021/12/07 07:58:11;;;;;;;;;;;;;;;4.00;1.33;98593.09;4985146;28;19956;-75
2021/12/07 08:00:37;;;;;;;;;;;;;;;3.62;4.42;98576.53;5007600;28;19913;-75
2021/12/07 08:03:03;;;;;;;;;;;;;;;4.01;3.92;98563.38;5005134;28;19917;-76
2021/12/07 08:05:29;;;;;;;;;;;;;;;3.99;5.49;98558.28;4984711;28;19918;-75
2021/12/07 08:07:54;;;;;;;;;;;;;;;3.65;12.18;98551.06;5008165;28;19922;-76
2021/12/07 08:10:28;;;;;;;;;;;;;;;3.76;8.51;98543.28;5011033;28;19925;-75
2021/12/07 08:12:54;;;;;;;;;;;;;;;3.99;6.83;98548.09;4989959;28;19956;-75
2021/12/07 08:15:19;;;;;;;;;;;;;;;3.86;9.29;98534.69;4969393;28;19960;-76
2021/12/07 08:17:44;;;;;;;;;;;;;;;3.84;7.59;98533.03;4988460;28;19913;-76
2021/12/07 08:20:10;;;;;;;;;;;;;;;3.92;5.79;98533.75;4987493;28;19914;-76
2021/12/07 08:22:35;;;;;;;;;;;;;;;4.03;5.43;98536.16;5009329;28;19920;-75
2021/12/07 08:25:01;;;;;;;;;;;;;;;3.91;6.81;98527.81;4985413;28;20401;-74
2021/12/07 08:27:26;;;;;;;;;;;;;;;4.09;4.40;98542.03;4988625;28;19921;-76
2021/12/07 08:29:52;;;;;;;;;;;;;;;3.98;6.39;98520.94;4987663;28;19917;-76
2021/12/07 08:32:17;;;;;;;;;;;;;;;4.06;7.70;98520.84;5008273;28;19921;-75
2021/12/07 08:34:43;;;;;;;;;;;;;;;4.24;6.75;98509.53;5012650;28;20012;-75
2021/12/07 08:37:08;;;;;;;;;;;;;;;4.68;6.20;98513.97;4993287;28;19919;-76
2021/12/07 08:39:34;;;;;;;;;;;;;;;4.81;7.89;98506.94;5010296;28;20193;-75
2021/12/07 08:42:03;;;;;;;;;;;;;;;4.75;12.59;98491.75;4972369;28;19914;-76
2021/12/07 08:44:29;;;;;;;;;;;;;;;4.68;14.86;98492.75;5011358;28;19928;-74
2021/12/07 08:46:54;;;;;;;;;;;;;;;4.69;16.41;98486.75;4993047;28;19921;-75
2021/12/07 08:49:21;;;;;;;;;;;;;;;4.83;20.17;98474.59;5009707;28;19932;-75
2021/12/07 08:51:46;;;;;;;;;;;;;;;5.01;21.04;98464.06;5011113;28;20924;-75
2021/12/07 08:54:30;;;;;;;;;;;;;;;4.38;28.37;98466.88;5012246;28;19920;-74
2021/12/07 08:59:44;;;;;;;;;;;;;;;4.63;25.53;98461.34;5009157;28;20027;-76
2021/12/07 09:02:11;;;;;;;;;;;;;;;4.97;26.71;98447.16;5011774;28;19936;-74
2021/12/07 09:04:36;;;;;;;;;;;;;;;5.14;25.09;98451.09;5010069;28;19917;-74
2021/12/07 09:07:02;;;;;;;;;;;;;;;4.51;31.39;98447.94;5009327;28;20018;-74
2021/12/07 09:09:28;;;;;;;;;;;;;;;5.29;25.60;98443.16;4986344;28;19917;-74
2021/12/07 09:11:54;;;;;;;;;;;;;;;5.08;31.25;98435.88;5008767;28;19937;-75
2021/12/07 09:14:19;;;;;;;;;;;;;;;4.69;34.69;98446.78;5011981;28;19983;-74
2021/12/07 09:16:46;;;;;;;;;;;;;;;4.99;29.67;98447.09;4986810;28;19913;-74
2021/12/07 09:19:11;;;;;;;;;;;;;;;4.89;33.89;98440.50;5011003;28;20492;-74
2021/12/07 09:21:36;;;;;;;;;;;;;;;4.47;33.30;98446.31;5007809;28;19995;-75
2021/12/07 09:24:02;;;;;;;;;;;;;;;5.06;30.55;98450.38;5009441;28;19924;-76
2021/12/07 09:26:27;;;;;;;;;;;;;;;5.45;35.02;98444.53;5009957;28;19913;-75
2021/12/07 09:28:53;;;;;;;;;;;;;;;4.94;40.95;98454.84;4971623;28;19917;-75
2021/12/07 09:31:18;;;;;;;;;;;;;;;5.43;39.68;98433.50;4987953;28;20104;-75
2021/12/07 09:33:43;;;;;;;;;;;;;;;5.02;42.53;98436.88;4986904;28;19917;-75
2021/12/07 09:36:10;;;;;;;;;;;;;;;5.09;43.88;98440.13;4971020;28;19931;-75
2021/12/07 09:38:35;;;;;;;;;;;;;;;5.10;47.82;98431.59;4976364;28;19917;-75
2021/12/07 09:41:03;;;;;;;;;;;;;;;5.06;49.80;98429.97;5008864;28;20327;-74
2021/12/07 09:43:28;;;;;;;;;;;;;;;4.84;48.86;98430.38;4993631;28;19913;-75
2021/12/07 09:45:54;;;;;;;;;;;;;;;4.72;52.94;98426.34;4986811;28;19925;-75
2021/12/07 09:48:19;;;;;;;;;;;;;;;4.46;50.38;98439.53;5009200;28;20056;-75
2021/12/07 09:50:46;;;;;;;;;;;;;;;4.84;45.73;98445.69;4970427;28;20022;-73
2021/12/07 09:53:12;;;;;;;;;;;;;;;4.85;43.83;98452.47;5010655;28;19922;-76
2021/12/07 09:55:37;;;;;;;;;;;;;;;4.79;42.28;98457.69;5008113;28;19924;-75
2021/12/07 09:58:03;;;;;;;;;;;;;;;4.92;40.65;98459.13;4970325;28;19996;-75
2021/12/07 10:00:29;;;;;;;;;;;;;;;5.02;37.81;98473.41;5009589;28;19999;-74
2021/12/07 10:02:54;;;;;;;;;;;;;;;4.90;40.50;98470.25;4992279;28;19956;-75
2021/12/07 10:05:22;;;;;;;;;;;;;;;4.83;39.85;98469.50;5007395;28;19917;-75
2021/12/07 10:07:47;;;;;;;;;;;;;;;4.86;39.94;98481.34;5008018;28;19924;-73
2021/12/07 10:10:21;;;;;;;;;;;;;;;5.35;39.76;98488.97;5009617;28;19917;-74
2021/12/07 10:12:47;;;;;;;;;;;;;;;5.05;43.06;98489.56;5008826;28;20410;-75
2021/12/07 10:15:13;;;;;;;;;;;;;;;5.35;41.35;98494.06;4969505;28;20003;-75
2021/12/07 10:17:38;;;;;;;;;;;;;;;5.02;45.31;98485.34;4970119;28;19918;-75
2021/12/07 10:20:22;;;;;;;;;;;;;;;5.17;47.05;98474.00;4985716;28;19996;-76
2021/12/07 10:22:48;;;;;;;;;;;;;;;5.39;47.19;98465.06;5008850;28;20375;-75
2021/12/07 10:25:24;;;;;;;;;;;;;;;5.22;50.91;98467.09;4985290;28;19913;-75
2021/12/07 10:27:49;;;;;;;;;;;;;;;5.58;49.89;98454.47;4986211;28;21099;-74
2021/12/07 10:30:19;;;;;;;;;;;;;;;5.91;50.65;98457.19;4985173;28;19928;-73
2021/12/07 10:33:02;;;;;;;;;;;;;;;6.00;56.04;98451.91;5006586;28;19953;-75
2021/12/07 10:35:34;;;;;;;;;;;;;;;5.61;60.38;98451.84;5009142;28;19917;-73
2021/12/07 10:38:13;;;;;;;;;;;;;;;5.90;58.12;98460.63;5005313;28;19920;-75
2021/12/07 10:40:54;;;;;;;;;;;;;;;5.76;60.26;98453.25;5006612;28;19976;-72
2021/12/07 10:43:38;;;;;;;;;;;;;;;5.95;60.81;98443.50;5008185;28;20118;-76
2021/12/07 10:46:05;;;;;;;;;;;;;;;6.17;67.32;98431.06;5010067;28;19913;-74
2021/12/07 10:48:30;;;;;;;;;;;;;;;5.44;67.22;98422.41;4985595;28;20024;-75
2021/12/07 10:50:58;;;;;;;;;;;;;;;5.75;63.21;98426.88;5009844;28;20425;-74
2021/12/07 10:53:23;;;;;;;;;;;;;;;5.77;68.75;98425.13;4970501;28;19998;-75
2021/12/07 10:55:49;;;;;;;;;;;;;;;6.28;70.40;98427.38;5009832;28;19975;-74
2021/12/07 10:58:14;;;;;;;;;;;;;;;5.31;75.50;98425.22;4990083;28;19913;-74
2021/12/07 11:00:41;;;;;;;;;;;;;;;5.86;67.38;98426.63;4980230;28;20410;-75
2021/12/07 11:03:11;;;;;;;;;;;;;;;5.69;72.69;98437.22;5006726;28;19917;-75
2021/12/07 11:05:37;;;;;;;;;;;;;;;5.91;71.05;98439.28;4984742;28;19921;-75
2021/12/07 11:08:04;;;;;;;;;;;;;;;5.83;75.49;98437.75;5008490;28;19921;-75
2021/12/07 11:10:31;;;;;;;;;;;;;;;5.94;76.50;98442.66;4969221;28;19917;-75
2021/12/07 11:13:15;;;;;;;;;;;;;;;6.45;80.58;98438.91;4986515;28;19921;-74
2021/12/07 11:15:49;;;;;;;;;;;;;;;5.81;88.86;98431.00;4971482;28;20023;-75
2021/12/07 11:18:14;;;;;;;;;;;;;;;5.65;85.71;98438.16;4987774;28;19917;-75
2021/12/07 11:20:40;;;;;;;;;;;;;;;5.97;77.86;98442.59;4985617;28;20734;-75
2021/12/07 11:23:05;;;;;;;;;;;;;;;5.97;84.55;98437.47;5008651;28;20082;-75
2021/12/07 11:31:19;;;;;;;;;;;;;;;5.90;89.09;98427.41;5010464;28;19943;-74
2021/12/07 11:33:44;;;;;;;;;;;;;;;5.40;91.96;98425.03;5007899;28;20383;-75
2021/12/07 11:36:17;;;;;;;;;;;;;;;5.80;89.10;98424.22;5008828;28;19917;-75
2021/12/07 11:38:43;;;;;;;;;;;;;;;6.13;91.76;98414.94;4985567;28;19940;-73
2021/12/07 11:41:15;;;;;;;;;;;;;;;6.51;93.83;98412.38;5006489;28;20326;-75
2021/12/07 11:43:54;;;;;;;;;;;;;;;6.21;100.00;98414.78;4983720;28;19949;-75
2021/12/07 11:46:20;;;;;;;;;;;;;;;6.55;100.00;98411.41;4985236;28;19925;-74
2021/12/07 11:48:46;;;;;;;;;;;;;;;6.50;100.00;98396.19;5009723;28;19917;-74
2021/12/07 11:51:11;;;;;;;;;;;;;;;6.50;100.00;98388.50;5012506;28;19967;-75
2021/12/07 11:53:37;;;;;;;;;;;;;;;6.18;100.00;98387.59;4988465;28;19924;-75
2021/12/07 11:56:02;;;;;;;;;;;;;;;6.43;100.00;98379.28;4992088;28;19928;-74
2021/12/07 11:58:28;;;;;;;;;;;;;;;6.62;100.00;98385.63;4995509;28;20234;-75
2021/12/07 12:00:54;;;;;;;;;;;;;;;6.62;100.00;98377.94;4988479;28;20106;-74
2021/12/07 12:03:22;;;;;;;;;;;;;;;6.17;100.00;98378.22;4989084;28;19917;-75
2021/12/07 12:05:48;;;;;;;;;;;;;;;6.60;100.00;98372.03;5012068;28;20004;-75
2021/12/07 12:08:14;;;;;;;;;;;;;;;6.84;100.00;98367.13;4995305;28;20395;-75
2021/12/07 12:10:45;;;;;;;;;;;;;;;6.44;100.00;98361.34;5010713;28;19920;-74
2021/12/07 12:13:10;;;;;;;;;;;;;;;6.53;100.00;98362.00;4988665;28;19917;-74
2021/12/07 12:15:38;;;;;;;;;;;;;;;6.58;100.00;98368.66;4992837;28;20287;-74
2021/12/07 12:18:22;;;;;;;;;;;;;;;6.84;100.00;98367.13;5011090;28;19913;-74
2021/12/07 12:20:57;;;;;;;;;;;;;;;6.93;100.00;98361.75;5011617;28;19914;-74
2021/12/07 12:23:29;;;;;;;;;;;;;;;6.71;100.00;98364.09;4988919;28;19917;-74
2021/12/07 12:25:58;;;;;;;;;;;;;;;6.91;100.00;98358.41;5011695;28;19917;-73
2021/12/07 12:28:32;;;;;;;;;;;;;;;7.28;100.00;98365.06;5011633;28;19925;-75
2021/12/07 12:30:57;;;;;;;;;;;;;;;6.51;100.00;98346.69;4988228;28;20730;-74
2021/12/07 12:33:23;;;;;;;;;;;;;;;6.46;100.00;98345.97;5009666;28;20398;-74
2021/12/07 12:35:52;;;;;;;;;;;;;;;7.04;100.00;98336.69;4988284;28;20008;-74
2021/12/07 12:38:19;;;;;;;;;;;;;;;6.60;100.00;98345.63;5010746;28;20045;-73
2021/12/07 12:40:52;;;;;;;;;;;;;;;6.77;100.00;98342.59;5006373;28;20344;-74
2021/12/07 12:43:23;;;;;;;;;;;;;;;6.19;100.00;98329.63;5006531;28;20415;-74
2021/12/07 12:45:48;;;;;;;;;;;;;;;5.97;100.00;98334.41;4970391;28;19917;-74
2021/12/07 12:48:18;;;;;;;;;;;;;;;6.10;100.00;98333.22;4970353;28;19921;-75
2021/12/07 12:50:44;;;;;;;;;;;;;;;5.92;100.00;98341.31;4996221;28;20029;-74
2021/12/07 12:53:09;;;;;;;;;;;;;;;6.24;100.00;98336.28;5010773;28;19988;-74
2021/12/07 12:55:42;;;;;;;;;;;;;;;6.22;100.00;98345.69;5009635;28;20008;-74
2021/12/07 12:58:15;;;;;;;;;;;;;;;5.97;100.00;98350.56;5011530;28;20299;-74
2021/12/07 13:00:59;;;;;;;;;;;;;;;5.80;100.00;98348.41;5007011;28;19972;-74
2021/12/07 13:03:25;;;;;;;;;;;;;;;5.72;100.00;98365.59;4987038;28;20395;-74
2021/12/07 13:06:00;;;;;;;;;;;;;;;5.36;100.00;98357.91;4990244;28;19913;-74
2021/12/07 13:08:25;;;;;;;;;;;;;;;6.02;100.00;98347.91;5007820;28;20379;-74
2021/12/07 13:11:01;;;;;;;;;;;;;;;5.77;100.00;98345.91;5008529;28;19983;-75
2021/12/07 13:13:31;;;;;;;;;;;;;;;6.28;100.00;98340.44;4959341;28;19926;-75
2021/12/07 13:15:57;;;;;;;;;;;;;;;6.24;100.00;98343.94;5008156;28;20021;-75
2021/12/07 13:18:23;;;;;;;;;;;;;;;6.29;100.00;98341.28;5007766;28;20353;-73
2021/12/07 13:20:50;;;;;;;;;;;;;;;5.65;100.00;98334.25;5002656;28;19917;-73
2021/12/07 13:23:16;;;;;;;;;;;;;;;5.71;100.00;98335.00;4984097;28;19948;-74
2021/12/07 13:25:43;;;;;;;;;;;;;;;5.73;100.00;98340.91;5006617;28;20290;-75
2021/12/07 13:28:13;;;;;;;;;;;;;;;5.99;100.00;98340.31;4985077;28;19921;-75
2021/12/07 13:30:45;;;;;;;;;;;;;;;5.78;100.00;98332.25;5008231;28;20289;-74
2021/12/07 13:33:15;;;;;;;;;;;;;;;5.28;100.00;98329.13;5008116;28;19921;-74
2021/12/07 13:35:40;;;;;;;;;;;;;;;5.91;100.00;98320.03;4969149;28;19921;-74
2021/12/07 13:38:17;;;;;;;;;;;;;;;5.81;100.00;98323.69;4986895;28;19940;-74
2021/12/07 13:40:42;;;;;;;;;;;;;;;6.07;100.00;98315.44;4991264;28;19964;-75
2021/12/07 13:43:08;;;;;;;;;;;;;;;5.87;100.00;98309.03;4987439;28;19952;-74
2021/12/07 13:45:33;;;;;;;;;;;;;;;5.61;100.00;98311.34;5011587;28;19920;-73
2021/12/07 13:48:01;;;;;;;;;;;;;;;5.72;100.00;98309.41;5006698;28;20262;-74
2021/12/07 13:50:29;;;;;;;;;;;;;;;5.22;100.00;98303.72;5007388;28;19964;-75
2021/12/07 13:52:55;;;;;;;;;;;;;;;5.56;100.00;98298.69;5007066;28;20047;-74
2021/12/07 13:55:21;;;;;;;;;;;;;;;5.40;100.00;98292.25;4991201;28;20008;-74
2021/12/07 13:57:48;;;;;;;;;;;;;;;5.59;100.00;98285.88;5010074;28;19922;-74
2021/12/07 14:00:16;;;;;;;;;;;;;;;5.68;100.00;98274.59;5012961;28;19944;-75
2021/12/07 14:02:44;;;;;;;;;;;;;;;5.41;100.00;98273.53;5005299;28;19918;-74
2021/12/07 14:05:15;;;;;;;;;;;;;;;5.73;100.00;98282.16;4984900;28;19925;-74
2021/12/07 14:07:41;;;;;;;;;;;;;;;5.35;100.00;98273.66;4980992;28;19918;-72
2021/12/07 14:10:27;;;;;;;;;;;;;;;5.24;100.00;98268.78;4985655;28;19997;-73
2021/12/07 14:12:53;;;;;;;;;;;;;;;4.93;100.00;98264.38;5013115;28;20339;-74
2021/12/07 14:15:26;;;;;;;;;;;;;;;5.20;100.00;98259.53;5009068;28;19914;-73
2021/12/07 14:17:53;;;;;;;;;;;;;;;5.34;100.00;98257.50;4986280;28;20012;-74
2021/12/07 14:20:38;;;;;;;;;;;;;;;5.10;100.00;98252.94;4983306;28;19986;-74
2021/12/07 14:23:16;;;;;;;;;;;;;;;5.01;100.00;98248.88;4984147;28;20537;-73
2021/12/07 14:26:08;;;;;;;;;;;;;;;4.66;100.00;98247.09;5004571;28;20014;-73
2021/12/07 14:28:38;;;;;;;;;;;;;;;5.20;100.00;98237.41;5002851;28;19975;-73
2021/12/07 14:31:06;;;;;;;;;;;;;;;5.42;100.00;98235.19;5007126;28;19992;-72
2021/12/07 14:33:35;;;;;;;;;;;;;;;4.97;100.00;98232.81;5006467;28;20163;-73
2021/12/07 14:36:00;;;;;;;;;;;;;;;4.86;100.00;98223.69;5004936;28;19921;-73
2021/12/07 14:38:29;;;;;;;;;;;;;;;4.94;100.00;98226.94;5002972;28;20307;-73